createdAt,value
2017-09-22T00:00:39.622Z,20.10
2017-09-22T00:03:06.681Z,24.97
2017-09-22T00:05:33.740Z,19.37
2017-09-22T00:08:00.779Z,21.40
2017-09-22T00:10:27.814Z,23.87
2017-09-22T00:12:54.116Z,22.80
2017-09-22T00:15:20.391Z,22.80
2017-09-22T00:17:47.423Z,22.10
2017-09-22T00:20:13.710Z,21.83
2017-09-22T00:22:40.002Z,25.27
2017-09-22T00:25:07.017Z,29.77
2017-09-22T00:27:33.310Z,28.30
2017-09-22T00:29:59.608Z,24.80
2017-09-22T00:32:26.640Z,28.07
2017-09-22T00:34:53.707Z,27.10
2017-09-22T00:37:20.750Z,28.07
2017-09-22T00:39:47.798Z,28.30
2017-09-22T00:42:14.882Z,26.70
2017-09-22T00:44:41.204Z,26.63
2017-09-22T00:47:07.514Z,25.67
2017-09-22T00:49:33.835Z,26.43
2017-09-22T00:52:00.882Z,23.37
2017-09-22T00:54:27.204Z,24.20
2017-09-22T00:56:53.510Z,23.30
2017-09-22T00:59:19.821Z,21.70
2017-09-22T01:01:46.327Z,23.53
2017-09-22T01:04:12.667Z,28.17
2017-09-22T01:06:39.552Z,28.17
2017-09-22T01:09:05.912Z,25.27
2017-09-22T01:11:32.242Z,22.60
2017-09-22T01:13:58.554Z,23.40
2017-09-22T01:16:24.830Z,24.17
2017-09-22T01:18:51.109Z,25.10
2017-09-22T01:21:18.155Z,24.73
2017-09-22T01:23:51.464Z,26.07
2017-09-22T01:26:18.511Z,26.90
2017-09-22T01:28:45.541Z,26.60
2017-09-22T01:31:12.588Z,25.67
2017-09-22T01:33:38.901Z,26.03
2017-09-22T01:36:06.686Z,27.13
2017-09-22T01:38:32.964Z,26.07
2017-09-22T01:40:59.271Z,26.83
2017-09-22T01:43:25.566Z,23.80
2017-09-22T01:45:51.881Z,24.90
2017-09-22T01:48:18.179Z,23.27
2017-09-22T01:50:44.466Z,24.10
2017-09-22T01:53:11.513Z,22.70
2017-09-22T01:55:38.565Z,22.80
2017-09-22T01:58:05.597Z,21.17
2017-09-22T02:00:31.886Z,23.77
2017-09-22T02:02:58.172Z,24.97
2017-09-22T02:05:25.185Z,27.10
2017-09-22T02:07:51.480Z,25.60
2017-09-22T02:10:18.497Z,23.70
2017-09-22T02:12:44.806Z,25.20
2017-09-22T02:15:11.857Z,23.63
2017-09-22T02:17:38.898Z,20.63
2017-09-22T02:20:05.930Z,21.73
2017-09-22T02:22:32.233Z,21.70
2017-09-22T02:24:58.522Z,19.90
2017-09-22T02:27:25.549Z,23.27
2017-09-22T02:29:51.821Z,22.63
2017-09-22T02:32:18.127Z,21.00
2017-09-22T02:34:45.150Z,20.40
2017-09-22T02:37:11.433Z,21.10
2017-09-22T02:39:37.714Z,18.20
2017-09-22T02:42:03.993Z,21.20
2017-09-22T02:44:30.284Z,21.87
2017-09-22T02:46:56.600Z,20.53
2017-09-22T02:49:22.898Z,20.60
2017-09-22T02:51:49.190Z,20.10
2017-09-22T02:54:16.241Z,19.60
2017-09-22T02:56:42.521Z,19.53
2017-09-22T02:59:08.824Z,20.07
2017-09-22T03:01:35.113Z,20.73
2017-09-22T03:04:02.169Z,18.53
2017-09-22T03:06:29.194Z,17.93
2017-09-22T03:08:56.254Z,16.47
2017-09-22T03:11:23.271Z,17.10
2017-09-22T03:13:49.583Z,21.47
2017-09-22T03:16:15.881Z,20.13
2017-09-22T03:18:42.156Z,19.43
2017-09-22T03:21:08.445Z,20.73
2017-09-22T03:23:34.738Z,19.23
2017-09-22T03:26:01.034Z,19.10
2017-09-22T03:28:27.320Z,19.03
2017-09-22T03:30:53.615Z,22.37
2017-09-22T03:33:21.377Z,25.20
2017-09-22T03:35:47.676Z,24.50
2017-09-22T03:38:13.949Z,21.90
2017-09-22T03:40:40.236Z,23.30
2017-09-22T03:43:06.510Z,21.57
2017-09-22T03:45:32.799Z,23.07
2017-09-22T03:47:59.086Z,21.87
2017-09-22T03:50:26.136Z,21.23
2017-09-22T03:52:53.152Z,20.33
2017-09-22T03:55:19.448Z,18.93
2017-09-22T03:57:46.509Z,17.27
2017-09-22T04:00:12.787Z,17.00
2017-09-22T04:02:39.081Z,16.40
2017-09-22T04:05:05.365Z,16.10
2017-09-22T04:07:31.650Z,16.70
2017-09-22T04:09:57.931Z,19.70
2017-09-22T04:12:24.220Z,18.20
2017-09-22T04:14:51.229Z,20.07
2017-09-22T04:17:17.582Z,17.40
2017-09-22T04:19:43.859Z,17.50
2017-09-22T04:22:10.144Z,21.00
2017-09-22T04:24:37.177Z,19.87
2017-09-22T04:27:03.487Z,21.30
2017-09-22T04:29:29.791Z,20.37
2017-09-22T04:31:56.079Z,20.87
2017-09-22T04:34:22.360Z,20.83
2017-09-22T04:36:48.686Z,18.60
2017-09-22T04:39:14.968Z,18.40
2017-09-22T04:41:41.318Z,17.70
2017-09-22T04:44:08.364Z,18.90
2017-09-22T04:46:35.386Z,18.20
2017-09-22T04:49:01.676Z,19.17
2017-09-22T04:51:27.965Z,18.33
2017-09-22T04:53:54.993Z,17.13
2017-09-22T04:56:21.280Z,19.57
2017-09-22T04:58:47.574Z,18.73
2017-09-22T05:01:14.604Z,17.33
2017-09-22T05:03:40.906Z,16.57
2017-09-22T05:06:07.192Z,16.30
2017-09-22T05:08:33.486Z,18.40
2017-09-22T05:10:59.775Z,17.13
2017-09-22T05:13:26.094Z,15.77
2017-09-22T05:15:52.366Z,17.23
2017-09-22T05:18:18.685Z,19.57
2017-09-22T05:20:44.983Z,20.60
2017-09-22T05:23:11.283Z,22.73
2017-09-22T05:25:38.336Z,20.10
2017-09-22T05:28:05.406Z,19.40
2017-09-22T05:30:31.710Z,18.17
2017-09-22T05:32:58.730Z,17.63
2017-09-22T05:35:25.047Z,17.23
2017-09-22T05:37:51.323Z,16.50
2017-09-22T05:40:18.354Z,18.30
2017-09-22T05:42:45.386Z,17.07
2017-09-22T05:45:11.699Z,15.43
2017-09-22T05:47:38.009Z,15.90
2017-09-22T05:50:04.318Z,16.80
2017-09-22T05:52:30.598Z,16.70
2017-09-22T05:54:56.887Z,17.87
2017-09-22T05:57:23.198Z,17.00
2017-09-22T05:59:49.483Z,16.40
2017-09-22T06:02:15.793Z,16.90
2017-09-22T06:04:42.097Z,15.27
2017-09-22T06:07:08.447Z,15.30
2017-09-22T06:09:34.824Z,15.90
2017-09-22T06:12:01.124Z,16.83
2017-09-22T06:14:27.423Z,15.47
2017-09-22T06:16:53.723Z,13.77
2017-09-22T06:19:20.017Z,15.53
2017-09-22T06:21:47.092Z,14.50
2017-09-22T06:24:13.411Z,15.60
2017-09-22T06:26:40.470Z,14.83
2017-09-22T06:29:07.509Z,15.63
2017-09-22T06:31:33.790Z,15.70
2017-09-22T06:34:00.095Z,16.30
2017-09-22T06:36:27.165Z,20.23
2017-09-22T06:38:53.465Z,18.37
2017-09-22T06:41:20.495Z,18.33
2017-09-22T06:43:46.826Z,18.37
2017-09-22T06:46:13.113Z,18.30
2017-09-22T06:48:40.440Z,19.53
2017-09-22T06:51:06.746Z,17.93
2017-09-22T06:53:33.805Z,18.13
2017-09-22T06:56:00.860Z,17.10
2017-09-22T06:58:27.193Z,19.33
2017-09-22T07:00:53.491Z,21.03
2017-09-22T07:03:20.802Z,19.80
2017-09-22T07:05:47.208Z,18.60
2017-09-22T07:08:13.495Z,19.40
2017-09-22T07:10:39.820Z,17.80
2017-09-22T07:13:06.896Z,20.60
2017-09-22T07:15:33.940Z,22.37
2017-09-22T07:18:00.996Z,21.70
2017-09-22T07:20:28.046Z,23.40
2017-09-22T07:22:54.349Z,24.57
2017-09-22T07:25:20.657Z,24.50
2017-09-22T07:27:47.951Z,25.50
2017-09-22T07:30:15.946Z,24.50
2017-09-22T07:32:42.250Z,25.03
2017-09-22T07:35:09.314Z,23.87
2017-09-22T07:37:36.325Z,25.20
2017-09-22T07:40:02.609Z,25.20
2017-09-22T07:42:28.933Z,24.50
2017-09-22T07:44:55.213Z,24.57
2017-09-22T07:47:22.297Z,23.30
2017-09-22T07:49:48.591Z,22.83
2017-09-22T07:52:15.629Z,22.60
2017-09-22T07:54:42.671Z,23.40
2017-09-22T07:57:10.473Z,28.47
2017-09-22T07:59:37.514Z,21.47
2017-09-22T08:02:04.577Z,21.87
2017-09-22T08:04:31.603Z,20.27
2017-09-22T08:06:59.611Z,23.57
2017-09-22T08:09:25.906Z,18.93
2017-09-22T08:11:52.964Z,17.83
2017-09-22T08:14:19.269Z,10.87
2017-09-22T08:16:46.349Z,10.20
2017-09-22T08:19:13.374Z,7.70
2017-09-22T08:21:40.421Z,7.40
2017-09-22T08:24:07.476Z,7.73
2017-09-22T08:26:34.515Z,10.67
2017-09-22T08:29:01.546Z,15.87
2017-09-22T08:31:27.845Z,16.73
2017-09-22T08:33:54.467Z,15.80
2017-09-22T08:36:20.773Z,15.60
2017-09-22T08:38:47.083Z,8.67
2017-09-22T08:41:13.424Z,13.87
2017-09-22T08:43:40.456Z,16.43
2017-09-22T08:46:06.731Z,16.83
2017-09-22T08:48:33.033Z,17.03
2017-09-22T08:51:00.105Z,12.80
2017-09-22T08:53:26.396Z,9.00
2017-09-22T08:55:53.426Z,7.40
2017-09-22T08:58:20.499Z,5.70
2017-09-22T09:00:47.572Z,5.80
2017-09-22T09:03:14.604Z,5.37
2017-09-22T09:05:41.823Z,5.47
2017-09-22T09:08:09.107Z,6.10
2017-09-22T09:10:35.433Z,9.23
2017-09-22T09:13:02.477Z,5.73
2017-09-22T09:15:28.803Z,4.73
2017-09-22T09:17:55.102Z,5.53
2017-09-22T09:20:21.395Z,6.10
2017-09-22T09:22:47.695Z,5.53
2017-09-22T09:25:14.743Z,4.70
2017-09-22T09:27:41.784Z,6.20
2017-09-22T09:30:08.866Z,7.50
2017-09-22T09:32:35.168Z,8.10
2017-09-22T09:35:02.222Z,7.20
2017-09-22T09:37:28.558Z,6.93
2017-09-22T09:39:54.879Z,6.70
2017-09-22T09:42:21.930Z,7.07
2017-09-22T09:44:48.994Z,7.17
2017-09-22T09:47:15.330Z,6.47
2017-09-22T09:49:42.538Z,7.07
2017-09-22T09:52:09.588Z,7.17
2017-09-22T09:54:36.646Z,6.57
2017-09-22T09:57:03.738Z,6.77
2017-09-22T09:59:30.037Z,6.43
2017-09-22T10:01:56.410Z,6.10
2017-09-22T10:04:22.729Z,7.07
2017-09-22T10:06:49.308Z,7.73
2017-09-22T10:09:15.809Z,5.17
2017-09-22T10:11:42.156Z,4.77
2017-09-22T10:14:09.242Z,4.23
2017-09-22T10:16:35.565Z,4.60
2017-09-22T10:19:02.624Z,3.50
2017-09-22T10:21:28.956Z,3.87
2017-09-22T10:23:55.292Z,3.37
2017-09-22T10:26:21.589Z,3.10
2017-09-22T10:28:48.757Z,3.43
2017-09-22T10:31:15.794Z,3.37
2017-09-22T10:33:42.110Z,2.83
2017-09-22T10:36:08.450Z,2.90
2017-09-22T10:38:35.546Z,2.60
2017-09-22T10:41:01.869Z,2.83
2017-09-22T10:43:28.177Z,2.77
2017-09-22T10:45:54.530Z,2.47
2017-09-22T10:48:20.826Z,3.20
2017-09-22T10:50:47.133Z,3.77
2017-09-22T10:53:14.174Z,3.37
2017-09-22T10:55:40.498Z,3.27
2017-09-22T10:58:08.308Z,3.03
2017-09-22T11:00:34.619Z,2.90
2017-09-22T11:03:00.937Z,3.20
2017-09-22T11:05:27.259Z,3.73
2017-09-22T11:07:54.325Z,3.90
2017-09-22T11:10:21.400Z,4.30
2017-09-22T11:12:47.690Z,3.33
2017-09-22T11:15:14.739Z,2.50
2017-09-22T11:17:41.045Z,2.57
2017-09-22T11:20:07.363Z,2.73
2017-09-22T11:22:33.676Z,2.80
2017-09-22T11:24:59.977Z,3.00
2017-09-22T11:27:27.021Z,3.23
2017-09-22T11:29:54.114Z,2.97
2017-09-22T11:32:20.414Z,2.70
2017-09-22T11:34:46.717Z,2.83
2017-09-22T11:37:13.778Z,3.27
2017-09-22T11:39:40.834Z,3.00
2017-09-22T11:42:07.238Z,2.30
2017-09-22T11:44:35.018Z,2.60
2017-09-22T11:47:02.065Z,2.70
2017-09-22T11:49:29.109Z,2.90
2017-09-22T11:51:56.411Z,2.50
2017-09-22T11:54:22.715Z,2.60
2017-09-22T11:56:49.014Z,2.97
2017-09-22T11:59:16.084Z,3.40
2017-09-22T12:01:42.403Z,2.93
2017-09-22T12:04:08.714Z,2.97
2017-09-22T12:06:35.743Z,3.00
2017-09-22T12:09:02.108Z,3.10
2017-09-22T12:11:29.166Z,2.70
2017-09-22T12:13:56.238Z,2.70
2017-09-22T12:16:22.551Z,2.30
2017-09-22T12:18:48.853Z,2.60
2017-09-22T12:21:15.922Z,2.50
2017-09-22T12:23:42.200Z,2.50
2017-09-22T12:26:08.542Z,2.60
2017-09-22T12:28:34.846Z,2.30
2017-09-22T12:31:01.159Z,2.53
2017-09-22T12:33:27.486Z,2.40
2017-09-22T12:35:53.821Z,2.73
2017-09-22T12:38:20.130Z,3.57
2017-09-22T12:40:46.471Z,2.97
2017-09-22T12:43:12.787Z,3.00
2017-09-22T12:45:39.129Z,2.50
2017-09-22T12:48:05.455Z,2.20
2017-09-22T12:50:31.758Z,1.70
2017-09-22T12:52:58.812Z,2.73
2017-09-22T12:55:25.867Z,3.00
2017-09-22T12:57:52.934Z,2.60
2017-09-22T13:00:19.237Z,2.20
2017-09-22T13:02:46.341Z,2.87
2017-09-22T13:05:12.787Z,2.10
2017-09-22T13:07:39.124Z,2.10
2017-09-22T13:10:05.838Z,2.60
2017-09-22T13:12:32.173Z,2.20
2017-09-22T13:14:58.535Z,2.13
2017-09-22T13:17:25.644Z,2.27
2017-09-22T13:19:51.972Z,1.80
2017-09-22T13:22:18.296Z,2.23
2017-09-22T13:24:45.537Z,2.20
2017-09-22T13:27:11.843Z,1.90
2017-09-22T13:29:38.940Z,2.10
2017-09-22T13:32:05.239Z,2.10
2017-09-22T13:34:31.575Z,2.30
2017-09-22T13:36:57.878Z,2.20
2017-09-22T13:39:25.549Z,2.10
2017-09-22T13:41:52.597Z,2.20
2017-09-22T13:44:19.684Z,2.20
2017-09-22T13:46:46.037Z,2.20
2017-09-22T13:49:12.344Z,2.77
2017-09-22T13:51:38.635Z,2.20
2017-09-22T13:54:05.735Z,2.33
2017-09-22T13:56:32.112Z,2.10
2017-09-22T13:58:58.453Z,2.50
2017-09-22T14:01:25.501Z,2.60
2017-09-22T14:03:51.831Z,1.77
2017-09-22T14:06:18.154Z,1.87
2017-09-22T14:08:44.482Z,2.47
2017-09-22T14:11:11.538Z,1.97
2017-09-22T14:13:37.837Z,1.90
2017-09-22T14:16:05.661Z,2.30
2017-09-22T14:18:31.992Z,1.77
2017-09-22T14:20:58.306Z,1.77
2017-09-22T14:23:24.635Z,2.10
2017-09-22T14:25:50.947Z,1.60
2017-09-22T14:28:17.269Z,1.70
2017-09-22T14:30:44.310Z,1.80
2017-09-22T14:33:11.350Z,1.40
2017-09-22T14:35:37.673Z,1.90
2017-09-22T14:38:04.014Z,1.50
2017-09-22T14:40:31.073Z,1.80
2017-09-22T14:42:57.384Z,1.53
2017-09-22T14:45:23.667Z,1.93
2017-09-22T14:47:49.968Z,1.47
2017-09-22T14:50:16.995Z,2.10
2017-09-22T14:52:44.039Z,1.60
2017-09-22T14:55:10.334Z,1.53
2017-09-22T14:57:36.661Z,1.50
2017-09-22T15:00:02.980Z,1.67
2017-09-22T15:02:29.280Z,1.20
2017-09-22T15:04:56.305Z,1.70
2017-09-22T15:07:22.610Z,1.50
2017-09-22T15:09:48.907Z,1.60
2017-09-22T15:12:15.196Z,2.00
2017-09-22T15:14:41.500Z,1.77
2017-09-22T15:17:07.809Z,2.60
2017-09-22T15:19:34.110Z,2.43
2017-09-22T15:22:01.143Z,2.50
2017-09-22T15:24:28.194Z,1.80
2017-09-22T15:26:55.230Z,1.80
2017-09-22T15:29:22.285Z,1.53
2017-09-22T15:31:48.613Z,1.77
2017-09-22T15:34:15.665Z,1.60
2017-09-22T15:36:42.693Z,1.43
2017-09-22T15:39:09.009Z,2.00
2017-09-22T15:41:35.375Z,1.80
2017-09-22T15:44:02.441Z,1.50
2017-09-22T15:46:28.711Z,1.80
2017-09-22T15:48:55.011Z,1.50
2017-09-22T15:51:21.341Z,1.30
2017-09-22T15:53:47.628Z,1.43
2017-09-22T15:56:14.705Z,2.07
2017-09-22T15:58:41.349Z,1.93
2017-09-22T16:01:07.717Z,1.80
2017-09-22T16:03:34.330Z,2.87
2017-09-22T16:06:00.666Z,2.67
2017-09-22T16:08:27.015Z,2.83
2017-09-22T16:10:53.329Z,2.60
2017-09-22T16:13:21.293Z,2.63
2017-09-22T16:15:47.637Z,2.70
2017-09-22T16:18:13.968Z,3.40
2017-09-22T16:20:40.379Z,2.60
2017-09-22T16:23:06.820Z,2.73
2017-09-22T16:25:33.431Z,2.80
2017-09-22T16:27:59.849Z,3.17
2017-09-22T16:30:26.938Z,3.20
2017-09-22T16:32:53.298Z,2.80
2017-09-22T16:35:19.792Z,2.47
2017-09-22T16:37:46.122Z,3.60
2017-09-22T16:40:12.433Z,3.83
2017-09-22T16:42:38.746Z,4.30
2017-09-22T16:45:05.795Z,3.80
2017-09-22T16:47:32.820Z,4.17
2017-09-22T16:49:59.189Z,3.80
2017-09-22T16:52:25.492Z,4.63
2017-09-22T16:54:51.827Z,4.23
2017-09-22T16:57:18.161Z,5.63
2017-09-22T16:59:45.194Z,3.70
2017-09-22T17:02:11.476Z,3.60
2017-09-22T17:04:37.816Z,4.17
2017-09-22T17:07:04.542Z,4.30
2017-09-22T17:09:32.057Z,3.70
2017-09-22T17:11:59.936Z,5.10
2017-09-22T17:14:26.328Z,6.17
2017-09-22T17:16:52.603Z,6.90
2017-09-22T17:19:19.668Z,5.70
2017-09-22T17:21:45.964Z,8.70
2017-09-22T17:24:13.723Z,9.37
2017-09-22T17:26:40.007Z,6.70
2017-09-22T17:29:06.294Z,8.57
2017-09-22T17:31:33.339Z,10.20
2017-09-22T17:33:59.701Z,8.63
2017-09-22T17:36:26.097Z,10.43
2017-09-22T17:38:53.141Z,9.33
2017-09-22T17:41:20.937Z,9.90
2017-09-22T17:43:47.277Z,8.50
2017-09-22T17:46:13.617Z,7.40
2017-09-22T17:48:39.906Z,6.90
2017-09-22T17:51:06.197Z,6.67
2017-09-22T17:53:32.514Z,6.30
2017-09-22T17:55:58.821Z,6.10
2017-09-22T17:58:25.093Z,6.47
2017-09-22T18:00:51.393Z,6.77
2017-09-22T18:03:17.686Z,6.50
2017-09-22T18:05:44.754Z,6.00
2017-09-22T18:08:11.045Z,6.07
2017-09-22T18:10:38.106Z,6.70
2017-09-22T18:13:04.430Z,5.90
2017-09-22T18:15:31.510Z,5.30
2017-09-22T18:17:57.797Z,5.07
2017-09-22T18:20:24.111Z,5.20
2017-09-22T18:22:50.464Z,4.63
2017-09-22T18:25:17.523Z,4.83
2017-09-22T18:27:44.543Z,4.60
2017-09-22T18:30:10.858Z,5.00
2017-09-22T18:32:37.124Z,5.20
2017-09-22T18:35:04.156Z,5.10
2017-09-22T18:37:31.196Z,5.10
2017-09-22T18:39:57.540Z,4.90
2017-09-22T18:42:24.617Z,4.40
2017-09-22T18:44:51.669Z,4.60
2017-09-22T18:47:17.956Z,4.03
2017-09-22T18:49:44.305Z,4.00
2017-09-22T18:52:12.317Z,4.10
2017-09-22T18:54:38.642Z,4.43
2017-09-22T18:57:05.005Z,4.20
2017-09-22T18:59:32.070Z,4.73
2017-09-22T19:01:59.854Z,3.93
2017-09-22T19:04:26.974Z,4.00
2017-09-22T19:06:53.277Z,4.30
2017-09-22T19:09:19.806Z,3.70
2017-09-22T19:11:46.158Z,3.70
2017-09-22T19:14:13.212Z,3.97
2017-09-22T19:16:39.607Z,3.50
2017-09-22T19:19:05.968Z,4.10
2017-09-22T19:21:33.767Z,3.87
2017-09-22T19:24:00.358Z,3.50
2017-09-22T19:26:27.497Z,3.93
2017-09-22T19:28:53.803Z,3.73
2017-09-22T19:31:21.486Z,3.00
2017-09-22T19:33:47.860Z,3.93
2017-09-22T19:36:15.790Z,3.73
2017-09-22T19:38:42.130Z,3.53
2017-09-22T19:41:08.451Z,4.80
2017-09-22T19:43:34.826Z,3.70
2017-09-22T19:46:01.129Z,4.20
2017-09-22T19:48:27.489Z,3.50
2017-09-22T19:50:54.827Z,4.10
2017-09-22T19:53:21.922Z,3.40
2017-09-22T19:55:48.297Z,3.80
2017-09-22T19:58:15.469Z,3.60
2017-09-22T20:00:43.409Z,3.97
2017-09-22T20:03:09.789Z,4.60
2017-09-22T20:05:36.095Z,5.20
2017-09-22T20:08:03.218Z,4.10
2017-09-22T20:10:29.529Z,3.87
2017-09-22T20:12:55.854Z,3.90
2017-09-22T20:15:22.221Z,3.20
2017-09-22T20:17:48.539Z,4.00
2017-09-22T20:20:14.945Z,4.10
2017-09-22T20:22:42.105Z,3.40
2017-09-22T20:25:08.516Z,3.80
2017-09-22T20:27:34.994Z,3.80
2017-09-22T20:30:01.467Z,3.67
2017-09-22T20:32:28.875Z,3.67
2017-09-22T20:34:55.984Z,3.27
2017-09-22T20:37:22.302Z,3.53
2017-09-22T20:39:49.403Z,3.67
2017-09-22T20:42:15.756Z,3.30
2017-09-22T20:44:42.825Z,3.50
2017-09-22T20:47:09.868Z,3.20
2017-09-22T20:49:36.938Z,4.00
2017-09-22T20:52:03.247Z,3.17
2017-09-22T20:54:31.059Z,3.40
2017-09-22T20:56:57.435Z,3.17
2017-09-22T20:59:23.836Z,3.00
2017-09-22T21:01:50.176Z,3.20
2017-09-22T21:04:16.499Z,2.90
2017-09-22T21:06:42.860Z,3.20
2017-09-22T21:09:09.187Z,3.00
2017-09-22T21:11:35.498Z,2.90
2017-09-22T21:14:01.829Z,2.80
2017-09-22T21:16:28.148Z,3.30
2017-09-22T21:18:54.459Z,3.30
2017-09-22T21:21:20.822Z,3.13
2017-09-22T21:23:47.173Z,3.13
2017-09-22T21:26:14.287Z,2.43
2017-09-22T21:28:40.762Z,2.90
2017-09-22T21:31:07.133Z,2.97
2017-09-22T21:33:33.448Z,2.93
2017-09-22T21:35:59.920Z,2.90
2017-09-22T21:38:26.485Z,2.70
2017-09-22T21:40:52.937Z,2.70
2017-09-22T21:43:19.981Z,2.70
2017-09-22T21:45:47.010Z,3.00
2017-09-22T21:48:13.490Z,3.27
2017-09-22T21:50:39.863Z,3.10
2017-09-22T21:53:06.170Z,3.10
2017-09-22T21:55:32.503Z,2.90
2017-09-22T21:57:58.853Z,2.93
2017-09-22T22:00:25.188Z,3.30
2017-09-22T22:02:52.334Z,2.90
2017-09-22T22:05:25.614Z,2.63
2017-09-22T22:07:51.910Z,2.80
2017-09-22T22:10:18.247Z,3.30
2017-09-22T22:12:44.646Z,3.67
2017-09-22T22:15:10.983Z,3.07
2017-09-22T22:17:38.945Z,3.93
2017-09-22T22:20:05.974Z,4.17
2017-09-22T22:22:32.263Z,3.70
2017-09-22T22:24:58.577Z,3.90
2017-09-22T22:27:24.862Z,3.63
2017-09-22T22:29:51.173Z,3.47
2017-09-22T22:32:17.448Z,4.00
2017-09-22T22:34:44.479Z,3.57
2017-09-22T22:37:11.509Z,3.30
2017-09-22T22:39:37.772Z,3.60
2017-09-22T22:42:04.809Z,4.00
2017-09-22T22:44:31.121Z,3.73
2017-09-22T22:46:58.885Z,4.33
2017-09-22T22:49:25.929Z,3.50
2017-09-22T22:51:53.685Z,3.23
2017-09-22T22:54:20.005Z,3.70
2017-09-22T22:56:46.288Z,3.90
2017-09-22T22:59:13.305Z,3.20
2017-09-22T23:01:39.589Z,3.60
2017-09-22T23:04:05.901Z,3.80
2017-09-22T23:06:32.948Z,3.50
2017-09-22T23:08:59.240Z,3.20
2017-09-22T23:11:25.518Z,3.13
2017-09-22T23:13:51.808Z,3.40
2017-09-22T23:16:18.836Z,3.57
2017-09-22T23:18:45.117Z,3.77
2017-09-22T23:21:11.413Z,3.73
2017-09-22T23:23:38.451Z,4.00
2017-09-22T23:26:05.490Z,3.90
2017-09-22T23:28:31.775Z,3.80
2017-09-22T23:30:58.073Z,4.20
2017-09-22T23:33:25.084Z,3.80
2017-09-22T23:35:51.369Z,4.10
2017-09-22T23:38:17.658Z,3.77
2017-09-22T23:40:43.951Z,3.80
2017-09-22T23:43:10.271Z,4.60
2017-09-22T23:45:36.553Z,4.43
2017-09-22T23:48:02.858Z,4.07
2017-09-22T23:50:29.128Z,4.13
2017-09-22T23:52:56.153Z,3.83
2017-09-22T23:55:22.473Z,4.37
2017-09-22T23:57:48.750Z,4.10
